Time;durP1;ratioP1;P1;durP2;ratioP2;P2;SDS_P1;SDS_P2;PMS_P1;PMS_P2;Temp;Humidity;BMP_temperature;BMP_pressure;BME280_temperature;BME280_humidity;BME280_pressure;Samples;Min_cycle;Max_cycle;Signal;HPM_P1;HPM_P2
2022/12/28 00:01:07;;;;;;;12.07;4.40;;;3.30;99.90;;;;;;5112181;28;20231;-73
2022/12/28 00:03:34;;;;;;;13.03;4.37;;;3.30;99.90;;;;;;5112817;28;20206;-74
2022/12/28 00:06:03;;;;;;;12.37;4.50;;;3.30;99.90;;;;;;5112816;28;20199;-74
2022/12/28 00:08:30;;;;;;;10.53;4.20;;;3.30;99.90;;;;;;5112649;28;20206;-73
2022/12/28 00:11:00;;;;;;;9.23;4.20;;;3.30;99.90;;;;;;5112455;28;20203;-73
2022/12/28 00:13:29;;;;;;;14.87;4.30;;;3.30;99.90;;;;;;5112349;28;20234;-73
2022/12/28 00:15:55;;;;;;;14.53;5.13;;;3.30;99.90;;;;;;5112391;28;20203;-72
2022/12/28 00:18:22;;;;;;;9.67;4.60;;;3.30;99.90;;;;;;5108497;28;20199;-73
2022/12/28 00:20:57;;;;;;;10.20;3.93;;;3.30;99.90;;;;;;5092536;28;20216;-74
2022/12/28 00:23:26;;;;;;;10.20;4.67;;;3.30;99.90;;;;;;5091957;28;20284;-72
2022/12/28 00:25:53;;;;;;;8.77;4.30;;;3.30;99.90;;;;;;5092526;28;20199;-73
2022/12/28 00:28:20;;;;;;;9.77;4.60;;;3.20;99.90;;;;;;5098733;28;20201;-74
2022/12/28 00:30:47;;;;;;;9.53;4.83;;;3.20;99.90;;;;;;5112754;28;20203;-74
2022/12/28 00:33:15;;;;;;;11.70;4.77;;;3.20;99.90;;;;;;5112839;28;20575;-73
2022/12/28 00:35:41;;;;;;;10.87;4.60;;;3.20;99.90;;;;;;5112442;28;20203;-73
2022/12/28 00:38:08;;;;;;;11.57;4.50;;;3.20;99.90;;;;;;5111919;28;20202;-73
2022/12/28 00:40:36;;;;;;;8.97;4.33;;;3.20;99.90;;;;;;5112609;28;20212;-73
2022/12/28 00:43:03;;;;;;;11.03;5.17;;;3.20;99.90;;;;;;5112828;28;20223;-74
2022/12/28 00:45:30;;;;;;;9.37;4.57;;;3.20;99.90;;;;;;5112442;28;20209;-74
2022/12/28 00:47:57;;;;;;;11.57;5.13;;;3.20;99.90;;;;;;5112311;28;20203;-72
2022/12/28 00:50:23;;;;;;;14.30;5.17;;;3.20;99.90;;;;;;5112367;28;20210;-72
2022/12/28 00:52:50;;;;;;;14.63;5.00;;;3.20;99.90;;;;;;5112539;28;20570;-73
2022/12/28 00:55:17;;;;;;;11.53;5.17;;;3.20;99.90;;;;;;5112067;28;20651;-73
2022/12/28 00:57:45;;;;;;;12.87;5.20;;;3.20;99.90;;;;;;5112256;28;20203;-73
2022/12/28 01:00:13;;;;;;;14.27;5.20;;;3.20;99.90;;;;;;5120168;28;20587;-65
2022/12/28 01:02:40;;;;;;;12.17;4.90;;;3.20;99.90;;;;;;5126889;28;20234;-66
2022/12/28 01:05:08;;;;;;;10.87;5.13;;;3.20;99.90;;;;;;5111759;28;20218;-65
2022/12/28 01:07:34;;;;;;;11.40;5.60;;;3.20;99.90;;;;;;5113947;28;20695;-65
2022/12/28 01:10:01;;;;;;;16.73;6.47;;;3.20;99.90;;;;;;5115661;28;20682;-66
2022/12/28 01:12:29;;;;;;;13.37;5.50;;;3.20;99.90;;;;;;5115803;28;20568;-65
2022/12/28 01:14:57;;;;;;;13.53;5.60;;;3.20;99.90;;;;;;5131561;27;20206;-66
2022/12/28 01:17:23;;;;;;;10.60;4.97;;;3.20;99.90;;;;;;5136083;27;20209;-66
2022/12/28 01:19:50;;;;;;;12.97;5.30;;;3.30;99.90;;;;;;5128886;27;20213;-66
2022/12/28 01:22:17;;;;;;;12.90;5.27;;;3.30;99.90;;;;;;5114808;28;20230;-66
2022/12/28 01:24:44;;;;;;;13.10;5.53;;;3.30;99.90;;;;;;5115270;28;20207;-65
2022/12/28 01:27:11;;;;;;;15.17;6.17;;;3.30;99.90;;;;;;5115263;28;20207;-66
2022/12/28 01:29:38;;;;;;;10.77;5.07;;;3.30;99.90;;;;;;5115483;28;20215;-66
2022/12/28 01:32:06;;;;;;;13.10;5.73;;;3.30;99.90;;;;;;5115217;28;20584;-67
2022/12/28 01:34:33;;;;;;;13.50;5.83;;;3.30;99.90;;;;;;5115402;28;20206;-67
2022/12/28 01:36:59;;;;;;;10.30;5.63;;;3.30;99.90;;;;;;5114925;28;20207;-66
2022/12/28 01:39:26;;;;;;;15.40;6.10;;;3.30;99.90;;;;;;5115002;28;20207;-66
2022/12/28 01:41:53;;;;;;;15.53;5.90;;;3.30;99.90;;;;;;5114934;28;20235;-70
2022/12/28 01:44:40;;;;;;;10.63;5.60;;;3.30;99.90;;;;;;5114860;28;20208;-66
2022/12/28 01:47:12;;;;;;;14.10;6.20;;;3.30;99.90;;;;;;5114548;28;20183;-67
2022/12/28 01:49:42;;;;;;;14.23;6.33;;;3.40;99.90;;;;;;5115050;28;20207;-66
2022/12/28 01:52:13;;;;;;;15.47;6.43;;;3.40;99.90;;;;;;5114447;28;20208;-66
2022/12/28 01:54:45;;;;;;;11.93;6.10;;;3.40;99.90;;;;;;5114045;28;20200;-68
2022/12/28 01:57:13;;;;;;;15.03;6.20;;;3.40;99.90;;;;;;5112843;28;20672;-67
2022/12/28 01:59:43;;;;;;;14.10;6.03;;;3.40;99.90;;;;;;5113820;28;20207;-67
2022/12/28 02:02:13;;;;;;;13.10;6.03;;;3.40;99.90;;;;;;5114664;28;20577;-67
2022/12/28 02:04:40;;;;;;;17.57;6.20;;;3.40;99.90;;;;;;5115095;28;20188;-66
2022/12/28 02:07:07;;;;;;;15.97;6.47;;;3.40;99.90;;;;;;5113635;28;20215;-66
2022/12/28 02:09:38;;;;;;;12.20;5.97;;;3.40;99.90;;;;;;5114330;28;20202;-67
2022/12/28 02:12:07;;;;;;;11.97;6.33;;;3.40;99.90;;;;;;5114604;28;20188;-67
2022/12/28 02:14:34;;;;;;;11.20;6.00;;;3.40;99.90;;;;;;5114513;28;20207;-66
2022/12/28 02:17:01;;;;;;;10.30;6.03;;;3.40;99.90;;;;;;5113923;27;20574;-66
2022/12/28 02:19:35;;;;;;;12.70;6.37;;;3.40;99.90;;;;;;5113552;28;20214;-67
2022/12/28 02:22:21;;;;;;;14.47;6.60;;;3.40;99.90;;;;;;5112704;28;20235;-66
2022/12/28 02:25:05;;;;;;;14.23;6.83;;;3.40;99.90;;;;;;5104402;28;20226;-65
2022/12/28 02:27:44;;;;;;;13.43;6.93;;;3.40;99.90;;;;;;5114391;28;20611;-67
2022/12/28 02:30:13;;;;;;;13.63;5.93;;;3.40;99.90;;;;;;5114301;28;20227;-67
2022/12/28 02:32:56;;;;;;;14.73;6.67;;;3.40;99.90;;;;;;5114178;28;20206;-66
2022/12/28 02:35:31;;;;;;;13.50;6.73;;;3.40;99.90;;;;;;5113583;27;20203;-66
2022/12/28 02:38:03;;;;;;;12.17;6.03;;;3.40;99.90;;;;;;5113996;28;20191;-67
2022/12/28 02:40:35;;;;;;;15.20;6.40;;;3.50;99.90;;;;;;5113980;28;20330;-68
2022/12/28 02:43:03;;;;;;;11.70;5.97;;;3.50;99.90;;;;;;5112854;27;20231;-65
2022/12/28 02:51:17;;;;;;;15.80;6.70;;;3.50;99.90;;;;;;5113548;28;20701;-66
2022/12/28 02:56:05;;;;;;;11.90;6.40;;;3.50;99.90;;;;;;5112958;28;20196;-66
2022/12/28 02:57:06;;;;;;;15.30;7.50;;;3.50;99.90;;;;;;5113176;28;20211;-68
2022/12/28 02:59:50;;;;;;;10.87;6.37;;;3.50;99.90;;;;;;5113844;28;20188;-66
2022/12/28 03:02:39;;;;;;;11.77;6.50;;;3.50;99.90;;;;;;5113037;27;20215;-66
2022/12/28 03:05:14;;;;;;;17.07;6.57;;;3.50;99.90;;;;;;5113541;28;20215;-68
2022/12/28 03:10:41;;;;;;;15.70;6.50;;;3.50;99.90;;;;;;5112813;28;20182;-67
2022/12/28 03:13:41;;;;;;;11.33;6.53;;;3.50;99.90;;;;;;5113292;28;20211;-65
2022/12/28 03:16:03;;;;;;;12.43;6.07;;;3.50;99.90;;;;;;5112762;28;20215;-66
2022/12/28 03:32:24;;;;;;;14.20;7.00;;;3.50;99.90;;;;;;5112252;28;20724;-65
2022/12/28 03:34:53;;;;;;;14.47;6.77;;;3.50;99.90;;;;;;5112823;28;20204;-65
2022/12/28 03:37:25;;;;;;;12.30;6.17;;;3.50;99.90;;;;;;5112873;28;20199;-67
2022/12/28 03:39:58;;;;;;;11.10;6.27;;;3.50;99.90;;;;;;5112550;28;20191;-67
2022/12/28 03:45:20;;;;;;;13.23;6.33;;;3.50;99.90;;;;;;5112693;28;20175;-66
2022/12/28 03:47:49;;;;;;;12.80;6.67;;;3.60;99.90;;;;;;5112338;28;20195;-66
2022/12/28 03:50:19;;;;;;;13.23;6.10;;;3.60;99.90;;;;;;5111742;28;20216;-67
2022/12/28 03:52:46;;;;;;;13.77;6.20;;;3.60;99.90;;;;;;5112253;28;20199;-68
2022/12/28 03:55:14;;;;;;;11.50;5.93;;;3.60;99.90;;;;;;5112716;28;20203;-68
2022/12/28 03:57:42;;;;;;;12.90;6.10;;;3.60;99.90;;;;;;5112222;28;20214;-65
2022/12/28 04:00:10;;;;;;;9.57;6.20;;;3.60;99.90;;;;;;5111947;28;20209;-66
2022/12/28 04:02:38;;;;;;;9.03;6.33;;;3.60;99.90;;;;;;5111966;28;20219;-67
2022/12/28 04:05:05;;;;;;;15.10;6.53;;;3.60;99.90;;;;;;5112527;28;20199;-66
2022/12/28 04:07:33;;;;;;;15.63;6.73;;;3.60;99.90;;;;;;5112142;28;20208;-65
2022/12/28 04:10:00;;;;;;;11.83;6.70;;;3.60;99.90;;;;;;5111352;28;20210;-66
2022/12/28 04:12:27;;;;;;;14.77;6.43;;;3.60;99.90;;;;;;5112366;28;20231;-67
2022/12/28 04:14:54;;;;;;;11.83;6.50;;;3.60;99.90;;;;;;5111129;28;20234;-67
2022/12/28 04:17:20;;;;;;;12.17;6.63;;;3.60;99.90;;;;;;5111905;28;20563;-66
2022/12/28 04:19:47;;;;;;;14.10;6.97;;;3.60;99.90;;;;;;5111005;28;20203;-67
2022/12/28 04:22:14;;;;;;;12.30;6.73;;;3.60;99.90;;;;;;5111892;28;20231;-67
2022/12/28 04:24:42;;;;;;;12.77;6.83;;;3.60;99.90;;;;;;5111428;28;20199;-66
2022/12/28 04:27:09;;;;;;;12.07;6.57;;;3.60;99.90;;;;;;5112323;28;20200;-67
2022/12/28 04:29:35;;;;;;;13.60;7.00;;;3.50;99.90;;;;;;5111813;28;20203;-66
2022/12/28 04:32:02;;;;;;;13.40;6.87;;;3.50;99.90;;;;;;5111891;28;20199;-67
2022/12/28 04:34:29;;;;;;;12.00;7.17;;;3.50;99.90;;;;;;5111358;28;20206;-67
2022/12/28 04:36:56;;;;;;;12.13;6.87;;;3.50;99.90;;;;;;5112331;28;20206;-66
2022/12/28 04:39:22;;;;;;;17.10;7.67;;;3.40;99.90;;;;;;5112044;28;20674;-66
2022/12/28 04:41:50;;;;;;;12.23;7.80;;;3.50;99.90;;;;;;5112468;28;20210;-65
2022/12/28 04:44:17;;;;;;;13.50;8.50;;;3.40;99.90;;;;;;5115326;27;20227;-65
2022/12/28 04:46:44;;;;;;;10.77;7.07;;;3.40;99.90;;;;;;5116092;28;20671;-66
2022/12/28 04:49:11;;;;;;;13.70;7.10;;;3.40;99.90;;;;;;5115845;28;20214;-67
2022/12/28 04:51:37;;;;;;;12.93;6.67;;;3.40;99.90;;;;;;5115684;28;20217;-68
2022/12/28 04:54:04;;;;;;;10.57;7.10;;;3.30;99.90;;;;;;5115635;28;20249;-67
2022/12/28 04:56:31;;;;;;;14.83;7.20;;;3.30;99.90;;;;;;5116786;28;20221;-74
2022/12/28 04:59:00;;;;;;;11.97;6.50;;;3.40;99.90;;;;;;5116620;28;20207;-73
2022/12/28 05:01:27;;;;;;;14.07;7.17;;;3.40;99.90;;;;;;5116007;28;20710;-74
2022/12/28 05:03:55;;;;;;;11.37;6.90;;;3.40;99.90;;;;;;5116177;28;20223;-73
2022/12/28 05:06:23;;;;;;;14.43;7.20;;;3.40;99.90;;;;;;5115196;27;20227;-72
2022/12/28 05:08:51;;;;;;;10.97;6.67;;;3.30;99.90;;;;;;5115830;28;20678;-72
2022/12/28 05:11:19;;;;;;;10.87;6.70;;;3.40;99.90;;;;;;5116024;28;20651;-72
2022/12/28 05:13:46;;;;;;;11.27;7.00;;;3.40;99.90;;;;;;5115929;28;20202;-72
2022/12/28 05:16:16;;;;;;;13.43;6.70;;;3.40;99.90;;;;;;5114825;28;20579;-72
2022/12/28 05:18:43;;;;;;;14.97;6.97;;;3.40;99.90;;;;;;5115523;28;20207;-72
2022/12/28 05:21:12;;;;;;;11.10;6.40;;;3.40;99.90;;;;;;5115702;28;20679;-72
2022/12/28 05:23:39;;;;;;;12.50;7.57;;;3.40;99.90;;;;;;5113926;27;20231;-73
2022/12/28 05:26:10;;;;;;;11.67;7.10;;;3.50;99.90;;;;;;5115603;28;20210;-72
2022/12/28 05:28:37;;;;;;;12.03;7.40;;;3.50;99.90;;;;;;5115506;28;20192;-72
2022/12/28 05:31:06;;;;;;;12.60;8.37;;;3.50;99.90;;;;;;5115619;28;20556;-73
2022/12/28 05:33:35;;;;;;;13.77;7.87;;;3.50;99.90;;;;;;5114404;28;20192;-73
2022/12/28 05:36:03;;;;;;;13.93;8.40;;;3.50;99.90;;;;;;5114958;28;20212;-72
2022/12/28 05:38:30;;;;;;;13.20;8.03;;;3.60;99.90;;;;;;5114716;28;20207;-73
2022/12/28 05:41:03;;;;;;;14.20;8.20;;;3.60;99.90;;;;;;5115245;28;20207;-73
2022/12/28 05:43:30;;;;;;;13.43;7.70;;;3.60;99.90;;;;;;5113189;28;20207;-73
2022/12/28 05:46:01;;;;;;;10.70;7.70;;;3.60;99.90;;;;;;5113877;28;20219;-73
2022/12/28 05:48:30;;;;;;;13.40;7.50;;;3.50;99.90;;;;;;5115000;28;20631;-74
2022/12/28 05:51:01;;;;;;;14.47;8.47;;;3.50;99.90;;;;;;5114953;28;20203;-72
2022/12/28 05:53:28;;;;;;;11.10;7.53;;;3.50;99.90;;;;;;5112760;28;20191;-73
2022/12/28 05:56:01;;;;;;;11.40;7.70;;;3.50;99.90;;;;;;5115173;28;20681;-72
2022/12/28 05:58:27;;;;;;;12.33;7.80;;;3.50;99.90;;;;;;5114817;28;20187;-72
2022/12/28 06:00:54;;;;;;;14.83;7.87;;;3.40;99.90;;;;;;5114734;28;20204;-73
2022/12/28 06:03:21;;;;;;;10.77;7.87;;;3.40;99.90;;;;;;5113408;27;20226;-72
2022/12/28 06:05:48;;;;;;;12.27;6.97;;;3.30;99.90;;;;;;5114784;28;20206;-72
2022/12/28 06:08:16;;;;;;;13.57;7.63;;;3.20;99.90;;;;;;5114168;28;20203;-73
2022/12/28 06:10:42;;;;;;;12.73;7.47;;;3.20;99.90;;;;;;5114729;28;20226;-73
2022/12/28 06:13:09;;;;;;;13.13;6.50;;;3.10;99.90;;;;;;5114544;28;20218;-72
2022/12/28 06:15:36;;;;;;;9.97;6.50;;;3.20;99.90;;;;;;5112279;27;20565;-74
2022/12/28 06:18:03;;;;;;;10.43;6.83;;;3.10;99.90;;;;;;5112108;27;20199;-72
2022/12/28 06:20:30;;;;;;;11.90;7.17;;;3.10;99.90;;;;;;5114073;28;20244;-72
2022/12/28 06:22:58;;;;;;;11.17;6.57;;;3.10;99.90;;;;;;5114109;28;20241;-74
2022/12/28 06:25:26;;;;;;;9.97;6.30;;;3.20;99.90;;;;;;5113720;28;20199;-73
2022/12/28 06:27:53;;;;;;;11.83;5.90;;;3.20;99.90;;;;;;5114256;28;20670;-72
2022/12/28 06:30:20;;;;;;;10.80;6.30;;;3.20;99.90;;;;;;5113141;28;20214;-73
2022/12/28 06:32:47;;;;;;;12.83;6.33;;;3.20;99.90;;;;;;5112554;27;20647;-73
2022/12/28 06:35:13;;;;;;;11.47;6.17;;;3.20;99.90;;;;;;5113329;28;20204;-73
2022/12/28 06:37:40;;;;;;;10.60;6.60;;;3.20;99.90;;;;;;5114169;28;20725;-72
2022/12/28 06:40:08;;;;;;;10.27;6.27;;;3.20;99.90;;;;;;5113961;28;20678;-73
2022/12/28 06:42:36;;;;;;;10.43;6.37;;;3.20;99.90;;;;;;5110331;28;20207;-74
2022/12/28 06:45:03;;;;;;;11.20;6.70;;;3.20;99.90;;;;;;5113594;27;20234;-73
2022/12/28 06:47:30;;;;;;;11.87;6.70;;;3.20;99.90;;;;;;5111995;28;20218;-73
2022/12/28 06:49:56;;;;;;;12.97;6.37;;;3.30;99.90;;;;;;5112342;27;20571;-73
2022/12/28 06:52:23;;;;;;;11.00;6.40;;;3.30;99.90;;;;;;5118817;27;20213;-73
2022/12/28 06:54:50;;;;;;;9.60;6.10;;;3.30;99.90;;;;;;5123613;27;20217;-73
2022/12/28 06:57:17;;;;;;;13.73;5.90;;;3.30;99.90;;;;;;5113538;28;20226;-73
2022/12/28 06:59:45;;;;;;;10.80;6.43;;;3.30;99.90;;;;;;5126845;27;20505;-73
2022/12/28 07:02:12;;;;;;;10.20;6.27;;;3.30;99.90;;;;;;5113798;27;20230;-73
2022/12/28 07:04:39;;;;;;;12.53;6.40;;;3.30;99.90;;;;;;5113009;27;20219;-71
2022/12/28 07:07:08;;;;;;;13.13;6.17;;;3.30;99.90;;;;;;5113242;28;20203;-71
2022/12/28 07:09:35;;;;;;;11.20;6.47;;;3.30;99.90;;;;;;5112108;28;20210;-76
2022/12/28 07:12:01;;;;;;;11.63;6.07;;;3.30;99.90;;;;;;5116570;27;20199;-75
2022/12/28 07:14:28;;;;;;;11.80;6.10;;;3.20;99.90;;;;;;5125230;27;20195;-78
2022/12/28 07:16:56;;;;;;;9.47;6.17;;;3.20;99.90;;;;;;5111824;28;20195;-76
2022/12/28 07:19:23;;;;;;;12.20;5.83;;;3.20;99.90;;;;;;5118600;27;20248;-77
2022/12/28 07:21:50;;;;;;;12.33;6.57;;;3.20;99.90;;;;;;5112576;27;20222;-75
2022/12/28 07:24:17;;;;;;;12.73;6.13;;;3.30;99.90;;;;;;5118008;27;20563;-78
2022/12/28 07:26:43;;;;;;;9.67;6.00;;;3.30;99.90;;;;;;5113759;28;20207;-73
2022/12/28 07:29:10;;;;;;;13.20;6.13;;;3.30;99.90;;;;;;5111334;27;20210;-74
2022/12/28 07:31:39;;;;;;;12.43;6.53;;;3.30;99.90;;;;;;5111876;28;20229;-74
2022/12/28 07:34:07;;;;;;;15.33;6.53;;;3.40;99.90;;;;;;5112891;28;20210;-75
2022/12/28 07:36:34;;;;;;;9.97;6.33;;;3.40;99.90;;;;;;5110725;28;20222;-76
2022/12/28 07:39:01;;;;;;;14.17;6.03;;;3.40;99.90;;;;;;5113205;28;20203;-79
2022/12/28 07:41:31;;;;;;;14.70;6.87;;;3.50;99.90;;;;;;5113560;28;20209;-75
2022/12/28 07:43:59;;;;;;;12.77;6.87;;;3.50;99.90;;;;;;5113117;28;20302;-78
2022/12/28 07:46:31;;;;;;;11.87;6.83;;;3.50;99.90;;;;;;5111715;28;20210;-75
2022/12/28 07:48:59;;;;;;;17.83;6.93;;;3.50;99.90;;;;;;5109561;27;20678;-76
2022/12/28 07:51:29;;;;;;;14.77;7.27;;;3.50;99.90;;;;;;5111076;28;20294;-77
2022/12/28 07:53:57;;;;;;;12.67;6.30;;;3.60;99.90;;;;;;5099044;28;20211;-76
2022/12/28 07:56:26;;;;;;;13.80;6.50;;;3.50;99.90;;;;;;5099671;27;20217;-78
2022/12/28 07:58:55;;;;;;;10.87;7.63;;;3.50;99.90;;;;;;5112484;28;20207;-76
2022/12/28 08:01:24;;;;;;;12.67;6.20;;;3.50;99.90;;;;;;5096227;28;20204;-76
2022/12/28 08:03:53;;;;;;;13.70;6.53;;;3.50;99.90;;;;;;5095382;28;20215;-76
2022/12/28 08:06:21;;;;;;;15.27;6.50;;;3.50;99.90;;;;;;5112543;28;20249;-76
2022/12/28 08:08:51;;;;;;;13.27;7.37;;;3.50;99.90;;;;;;5112543;28;20228;-76
2022/12/28 08:11:20;;;;;;;15.23;6.63;;;3.50;99.90;;;;;;5111869;28;20207;-74
2022/12/28 08:13:49;;;;;;;11.20;5.70;;;3.50;99.90;;;;;;5112065;28;20574;-76
2022/12/28 08:16:18;;;;;;;10.80;6.07;;;3.50;99.90;;;;;;5111184;28;20199;-75
2022/12/28 08:18:45;;;;;;;8.03;5.40;;;3.50;99.90;;;;;;5111626;28;20203;-75
2022/12/28 08:21:15;;;;;;;10.63;6.03;;;3.50;99.90;;;;;;5112553;28;20203;-76
2022/12/28 08:23:42;;;;;;;11.53;5.77;;;3.50;99.90;;;;;;5111919;28;20702;-74
2022/12/28 08:26:13;;;;;;;12.50;6.13;;;3.50;99.90;;;;;;5111066;28;20204;-74
2022/12/28 08:28:41;;;;;;;14.87;5.80;;;3.50;99.90;;;;;;5110666;28;20195;-73
2022/12/28 08:31:10;;;;;;;9.13;5.90;;;3.50;99.90;;;;;;5112007;28;20816;-74
2022/12/28 08:33:37;;;;;;;13.03;6.23;;;3.50;99.90;;;;;;5111848;28;20195;-75
2022/12/28 08:36:04;;;;;;;9.83;5.70;;;3.50;99.90;;;;;;5111641;28;20210;-74
2022/12/28 08:38:31;;;;;;;14.57;5.80;;;3.50;99.90;;;;;;5111471;28;20210;-76
2022/12/28 08:41:00;;;;;;;13.07;6.20;;;3.50;99.90;;;;;;5111565;28;20205;-74
2022/12/28 08:43:29;;;;;;;13.13;6.30;;;3.50;99.90;;;;;;5111971;28;20651;-73
2022/12/28 08:45:58;;;;;;;12.33;6.10;;;3.50;99.90;;;;;;5112248;28;20203;-75
2022/12/28 08:48:25;;;;;;;13.10;6.57;;;3.50;99.90;;;;;;5111263;28;20651;-76
2022/12/28 08:50:52;;;;;;;14.80;6.97;;;3.50;99.90;;;;;;5111380;28;20257;-76
2022/12/28 08:53:20;;;;;;;13.70;6.40;;;3.50;99.90;;;;;;5112302;28;20698;-74
2022/12/28 08:55:47;;;;;;;13.50;5.97;;;3.50;99.90;;;;;;5112302;28;20256;-75
2022/12/28 08:58:14;;;;;;;13.80;5.83;;;3.50;99.90;;;;;;5111014;28;20199;-76
2022/12/28 09:00:42;;;;;;;8.30;5.23;;;3.60;99.90;;;;;;5112345;28;20225;-75
2022/12/28 09:03:09;;;;;;;11.07;5.57;;;3.60;99.90;;;;;;5111228;28;20565;-75
2022/12/28 09:05:37;;;;;;;11.13;5.33;;;3.60;99.90;;;;;;5111765;28;20229;-74
2022/12/28 09:08:04;;;;;;;11.10;5.20;;;3.60;99.90;;;;;;5111455;28;20214;-74
2022/12/28 09:10:31;;;;;;;12.60;5.47;;;3.60;99.90;;;;;;5112250;28;20644;-76
2022/12/28 09:12:58;;;;;;;10.23;5.20;;;3.70;99.90;;;;;;5112100;28;20569;-75
2022/12/28 09:15:24;;;;;;;12.47;5.33;;;3.70;99.90;;;;;;5111867;28;20211;-76
2022/12/28 09:17:53;;;;;;;10.33;5.40;;;3.70;99.90;;;;;;5111296;28;20214;-77
2022/12/28 09:20:19;;;;;;;10.07;5.07;;;3.70;99.90;;;;;;5112449;28;20203;-75
2022/12/28 09:22:46;;;;;;;8.70;4.67;;;3.80;99.90;;;;;;5110785;28;20239;-74
2022/12/28 09:25:13;;;;;;;13.07;5.30;;;3.80;99.90;;;;;;5111700;28;20242;-75
2022/12/28 09:27:40;;;;;;;14.03;5.50;;;3.80;99.90;;;;;;5112519;28;20650;-77
2022/12/28 09:30:08;;;;;;;13.97;5.90;;;3.80;99.90;;;;;;5115612;28;20693;-76
2022/12/28 09:32:34;;;;;;;9.87;4.90;;;3.90;99.90;;;;;;5115489;28;20196;-75
2022/12/28 09:35:03;;;;;;;15.20;5.17;;;3.90;99.90;;;;;;5115600;28;20203;-76
2022/12/28 09:37:29;;;;;;;12.37;5.13;;;4.00;99.90;;;;;;5115741;28;20209;-77
2022/12/28 09:39:56;;;;;;;10.87;4.30;;;4.00;99.90;;;;;;5115283;28;20195;-75
2022/12/28 09:42:28;;;;;;;11.43;5.00;;;4.00;99.90;;;;;;5115075;28;20586;-74
2022/12/28 09:45:01;;;;;;;15.77;5.67;;;4.00;99.90;;;;;;5115021;28;20693;-77
2022/12/28 09:47:36;;;;;;;11.07;5.03;;;4.10;99.90;;;;;;5115066;28;20194;-74
2022/12/28 09:50:27;;;;;;;11.97;5.10;;;4.10;99.90;;;;;;5114825;28;20201;-75
2022/12/28 09:53:15;;;;;;;9.47;3.97;;;4.30;99.90;;;;;;5114285;28;20306;-77
2022/12/28 09:55:51;;;;;;;9.73;3.80;;;4.20;99.90;;;;;;5113544;28;20195;-78
2022/12/28 09:58:18;;;;;;;12.47;4.63;;;4.20;99.90;;;;;;5115400;28;20191;-74
2022/12/28 10:00:47;;;;;;;7.50;3.53;;;4.20;99.90;;;;;;5114533;28;20203;-75
2022/12/28 10:03:18;;;;;;;15.63;3.73;;;4.10;99.90;;;;;;5114946;28;20218;-74
2022/12/28 10:05:47;;;;;;;10.10;3.90;;;4.10;99.90;;;;;;5114756;28;20666;-75
2022/12/28 10:08:17;;;;;;;9.27;3.70;;;4.00;99.90;;;;;;5113888;28;20211;-75
2022/12/28 10:10:44;;;;;;;6.80;3.50;;;4.00;99.90;;;;;;5114247;28;20214;-75
2022/12/28 10:13:17;;;;;;;7.70;3.90;;;3.90;99.90;;;;;;5114761;28;20199;-76
2022/12/28 10:15:45;;;;;;;7.87;3.60;;;3.90;99.90;;;;;;5114307;28;20671;-76
2022/12/28 10:18:14;;;;;;;9.03;3.67;;;3.80;99.90;;;;;;5114318;28;20199;-76
2022/12/28 10:20:42;;;;;;;6.40;3.03;;;3.90;99.90;;;;;;5108195;28;20612;-77
2022/12/28 10:23:16;;;;;;;5.73;2.87;;;3.80;99.90;;;;;;5113052;28;20235;-72
2022/12/28 10:25:42;;;;;;;6.40;2.93;;;3.80;99.90;;;;;;5114154;28;20565;-71
2022/12/28 10:28:11;;;;;;;10.10;3.17;;;3.80;99.90;;;;;;5114421;28;20210;-72
2022/12/28 10:30:46;;;;;;;6.40;2.90;;;3.80;99.90;;;;;;5114421;28;20215;-72
2022/12/28 10:33:17;;;;;;;9.33;3.47;;;3.80;99.90;;;;;;5112809;28;20203;-74
2022/12/28 10:35:49;;;;;;;10.60;3.60;;;3.70;99.90;;;;;;5114265;28;20198;-73
2022/12/28 10:38:23;;;;;;;9.63;3.20;;;3.80;99.90;;;;;;5114061;28;20265;-73
2022/12/28 10:41:00;;;;;;;9.10;3.63;;;3.80;99.90;;;;;;5113616;28;20190;-73
2022/12/28 10:43:32;;;;;;;7.63;3.23;;;3.90;99.90;;;;;;5114286;28;20595;-72
2022/12/28 10:46:01;;;;;;;10.53;3.87;;;3.90;99.90;;;;;;5112950;28;20223;-72
2022/12/28 10:48:32;;;;;;;6.67;3.17;;;4.00;99.90;;;;;;5113741;28;20215;-74
2022/12/28 10:51:01;;;;;;;9.10;3.30;;;4.00;99.90;;;;;;5111931;28;20207;-72
2022/12/28 10:53:33;;;;;;;8.93;3.20;;;4.10;99.90;;;;;;5112990;28;20699;-71
2022/12/28 10:56:17;;;;;;;11.43;3.90;;;4.10;99.90;;;;;;5112519;28;20207;-73
2022/12/28 10:58:45;;;;;;;10.90;3.60;;;4.20;99.90;;;;;;5113466;28;20192;-73
2022/12/28 11:01:18;;;;;;;6.33;3.03;;;4.30;99.90;;;;;;5113759;28;20656;-73
2022/12/28 11:03:57;;;;;;;9.73;3.50;;;4.30;99.90;;;;;;5112186;28;20557;-74
2022/12/28 11:06:24;;;;;;;10.43;3.60;;;4.30;99.90;;;;;;5111221;27;20223;-73
2022/12/28 11:09:15;;;;;;;9.57;3.47;;;4.40;99.90;;;;;;5112350;28;20199;-75
2022/12/28 11:11:44;;;;;;;9.27;3.40;;;4.30;99.90;;;;;;5113455;28;20192;-73
2022/12/28 11:14:22;;;;;;;6.43;3.47;;;4.30;99.90;;;;;;5113211;27;20210;-73
2022/12/28 11:16:49;;;;;;;13.73;4.30;;;4.30;99.90;;;;;;5113548;28;20191;-75
2022/12/28 11:19:16;;;;;;;8.10;3.77;;;4.30;99.90;;;;;;5112369;28;20206;-75
2022/12/28 11:21:44;;;;;;;7.90;3.47;;;4.30;99.90;;;;;;5111693;28;20206;-74
2022/12/28 11:24:15;;;;;;;13.13;4.33;;;4.30;99.90;;;;;;5113104;28;20204;-76
2022/12/28 11:26:44;;;;;;;7.30;3.70;;;4.30;99.90;;;;;;5113165;28;20192;-75
2022/12/28 11:29:13;;;;;;;11.10;4.23;;;4.30;99.90;;;;;;5113238;28;20280;-74
2022/12/28 11:31:45;;;;;;;8.03;3.70;;;4.30;99.90;;;;;;5112177;27;20239;-73
2022/12/28 11:34:20;;;;;;;11.00;4.23;;;4.30;99.90;;;;;;5113750;28;20192;-77
2022/12/28 11:36:48;;;;;;;9.13;4.00;;;4.30;99.90;;;;;;5112192;28;20224;-76
2022/12/28 11:39:32;;;;;;;8.97;3.90;;;4.30;99.90;;;;;;5113323;28;20264;-76
2022/12/28 11:42:00;;;;;;;8.70;3.80;;;4.30;99.90;;;;;;5111424;28;20208;-76
2022/12/28 11:44:49;;;;;;;14.60;5.00;;;4.30;99.90;;;;;;5113188;28;20685;-74
2022/12/28 11:47:31;;;;;;;10.67;4.57;;;4.10;99.90;;;;;;5111663;28;20187;-75
2022/12/28 11:50:32;;;;;;;9.47;3.80;;;4.10;99.90;;;;;;5112275;28;20199;-66
2022/12/28 11:52:59;;;;;;;7.60;3.40;;;4.10;99.90;;;;;;5112336;28;20708;-72
2022/12/28 11:55:50;;;;;;;7.23;4.23;;;4.10;99.90;;;;;;5112489;28;20212;-71
2022/12/28 11:58:44;;;;;;;11.03;4.30;;;4.00;99.90;;;;;;5111853;27;20196;-73
2022/12/28 12:01:39;;;;;;;9.33;3.70;;;4.10;99.90;;;;;;5108984;27;20197;-72
2022/12/28 12:04:18;;;;;;;9.60;4.87;;;4.10;99.90;;;;;;5092394;28;20204;-72
2022/12/28 12:07:27;;;;;;;8.37;3.80;;;4.10;99.90;;;;;;5105597;28;20651;-71
2022/12/28 12:10:27;;;;;;;8.93;4.00;;;4.10;99.90;;;;;;5112351;28;20248;-71
2022/12/28 12:12:55;;;;;;;8.57;3.83;;;4.20;99.90;;;;;;5109620;28;20204;-72
2022/12/28 12:15:27;;;;;;;10.77;4.23;;;4.20;99.90;;;;;;5110361;28;20203;-72
2022/12/28 12:17:59;;;;;;;9.60;3.80;;;4.20;99.90;;;;;;5110541;28;20211;-71
2022/12/28 12:20:45;;;;;;;10.60;3.60;;;4.20;99.90;;;;;;5110766;27;20195;-72
2022/12/28 12:23:21;;;;;;;11.20;4.17;;;4.20;99.90;;;;;;5109251;28;20238;-72
2022/12/28 12:25:53;;;;;;;9.63;3.80;;;4.30;99.90;;;;;;5110249;28;20211;-72
2022/12/28 12:28:32;;;;;;;15.03;5.70;;;4.30;99.90;;;;;;5110210;28;20678;-72
2022/12/28 12:31:01;;;;;;;10.27;4.93;;;4.30;99.90;;;;;;5110366;28;20819;-72
2022/12/28 12:33:33;;;;;;;10.47;4.93;;;4.40;99.90;;;;;;5109479;28;20210;-72
2022/12/28 12:36:09;;;;;;;13.63;5.33;;;4.40;99.90;;;;;;5110190;28;20642;-73
2022/12/28 12:38:53;;;;;;;12.77;4.90;;;4.40;99.90;;;;;;5111559;28;20191;-72
2022/12/28 12:41:29;;;;;;;13.73;5.07;;;4.40;99.90;;;;;;5112320;28;20550;-72
2022/12/28 12:44:16;;;;;;;11.60;4.90;;;4.50;99.90;;;;;;5112316;28;20638;-73
2022/12/28 12:47:25;;;;;;;9.53;4.60;;;4.50;99.90;;;;;;5109570;28;20231;-73
2022/12/28 12:50:15;;;;;;;13.93;5.40;;;4.50;99.90;;;;;;5071438;28;20208;-73
2022/12/28 12:52:53;;;;;;;12.37;5.30;;;4.60;99.90;;;;;;5052070;28;20208;-72
2022/12/28 12:55:30;;;;;;;11.83;5.77;;;4.60;99.90;;;;;;5105422;28;20635;-72
2022/12/28 12:58:01;;;;;;;16.23;6.57;;;4.60;99.90;;;;;;5111689;28;20203;-72
2022/12/28 13:00:37;;;;;;;13.10;5.43;;;4.60;99.90;;;;;;5111875;28;20196;-73
2022/12/28 13:03:18;;;;;;;12.60;5.37;;;4.60;99.90;;;;;;5113407;28;20198;-72
2022/12/28 13:05:51;;;;;;;14.10;5.37;;;4.60;99.90;;;;;;5116218;28;20695;-72
2022/12/28 13:08:23;;;;;;;11.93;5.73;;;4.60;99.90;;;;;;5116673;27;20202;-73
2022/12/28 13:10:51;;;;;;;9.93;4.67;;;4.70;99.90;;;;;;5123024;27;20524;-71
2022/12/28 13:13:23;;;;;;;14.23;5.10;;;4.60;99.90;;;;;;5130411;27;20209;-72
2022/12/28 13:15:51;;;;;;;11.47;5.80;;;4.60;99.90;;;;;;5115989;28;20184;-72
2022/12/28 13:18:19;;;;;;;12.73;6.50;;;4.50;99.90;;;;;;5115582;28;20203;-72
2022/12/28 13:20:53;;;;;;;15.10;6.63;;;4.50;99.90;;;;;;5116085;28;20563;-72
2022/12/28 13:23:22;;;;;;;12.37;5.90;;;4.50;99.90;;;;;;5115418;27;20230;-73
2022/12/28 13:25:51;;;;;;;16.37;5.90;;;4.50;99.90;;;;;;5115076;28;20635;-72
2022/12/28 13:28:20;;;;;;;11.70;5.53;;;4.50;99.90;;;;;;5112957;28;20222;-71
2022/12/28 13:30:58;;;;;;;13.87;5.77;;;4.50;99.90;;;;;;5113733;28;20206;-71